Meteo Giornale » Osservazioni meteo Stati Uniti (USA) » Patterson Mem
ore: 03:56 - Osservazioni Meteo Patterson Mem
Lat. 29° 43' N Lon. 91° 20' W Alt. 3 metri s.l.m.
26 °C
Coperto
Temp. 24 Ore
25 °C
31 °C
Nord
7.4 Km/h
Dew point 0 °C
Umidità 18 %
Visibilità 10 Km
Il sole sorge alle ore 06:42
Il sole tramonta alle ore 19:27
| Data e Ora | Cielo e Fenomeni | T °C | DP °C | Um. % | Pres. hPa | Vis. km | Vento km/h | |
|---|---|---|---|---|---|---|---|---|
| Oggi h: 03:56 | Coperto | 26 | 0 | 18 | 1015 | 10 | N 7.4 | |
| Oggi h: 03:50 | Temporale nelle vicinanze | 26 | 0 | 18 | 1015 | 10 | S 9.3 | |
| Oggi h: 03:28 | Temporale nelle vicinanze | 26 | 0 | 18 | 1015 | 10 | E/NE 7.4 | |
| Oggi h: 02:56 | Nuvoloso | 26 | 0 | 18 | 1015 | 10 | E 7.4 | |
| Oggi h: 01:56 | Nuvoloso | 26 | 0 | 18 | 1015 | 10 | E 9.3 | |
| Oggi h: 00:56 | Molto Nuvoloso | 26 | 0 | 18 | 1015 | 10 | E/SE 11.1 | |
| Oggi h: 00:49 | Pioggia | 26 | 0 | 18 | 1016 | 10 | SE 13 | |
| Ieri h: 23:56 | Molto Nuvoloso | 26 | 26 | 100 | 1016 | 10 | S/SE 14.8 | |
| Ieri h: 23:53 | Molto Nuvoloso | 26 | 26 | 100 | 1016 | 10 | S/SE 16.7 | |
| Ieri h: 23:35 | Temporale nelle vicinanze | 27 | 27 | 100 | 1016 | 10 | E 13 | |
| Ieri h: 22:56 | Sereno | 27 | 27 | 100 | 1016 | 10 | E 13 | |
| Ieri h: 21:56 | Sereno | 27 | 27 | 100 | 1015 | 10 | E/NE 16.7 | |
| Ieri h: 20:56 | Sereno | 27 | 27 | 100 | 1015 | 10 | E/NE 13 | |
| Ieri h: 19:56 | Sereno | 27 | 27 | 100 | 1014 | 10 | E/NE 16.7 | |
| Ieri h: 18:56 | Sereno | 28 | 27 | 94 | 1014 | 10 | E/NE 14.8 | |
| Ieri h: 17:56 | Sereno | 29 | 27 | 89 | 1015 | 10 | E 11.1 | |
| Ieri h: 16:56 | Molto Nuvoloso | 30 | 27 | 84 | 1015 | 10 | E/NE 20.3 | |
| Ieri h: 16:25 | Molto Nuvoloso | 31 | 27 | 79 | 1015 | 10 | E 16.7 | |
| Ieri h: 15:56 | Coperto | 29 | 27 | 89 | 1015 | 10 | E/NE 14.8 | |
| Ieri h: 15:46 | Molto Nuvoloso | 28 | 28 | 100 | 1015 | 10 | E 11.1 | |
| Ieri h: 15:20 | Poco Nuvoloso | 31 | 27 | 79 | 1015 | 10 | E 25.9 | |
| Ieri h: 14:56 | Temporale nelle vicinanze | 29 | 29 | 100 | 1015 | 10 | E/NE 20.3 | |
| Ieri h: 13:56 | Poco Nuvoloso | 31 | 27 | 79 | 1015 | 10 | E 13 | |
| Ieri h: 12:56 | Sereno | 31 | 27 | 79 | 1016 | 10 | E/NE 22.2 | |
| Ieri h: 12:21 | Molto Nuvoloso | 29 | 29 | 100 | 1016 | 10 | E 18.5 | |
| Ieri h: 11:56 | Coperto | 30 | 28 | 89 | 1017 | 10 | NE 24 | |
| Ieri h: 11:40 | Molto Nuvoloso | 31 | 27 | 79 | 1017 | 10 | E 22.2 | |
| Ieri h: 10:56 | Molto Nuvoloso | 31 | 27 | 79 | 1017 | 10 | E/NE 16.7 | |
| Ieri h: 10:48 | Molto Nuvoloso | 31 | 27 | 79 | 1017 | 10 | E 18.5 | |
| Ieri h: 09:56 | Sereno | 29 | 28 | 94 | 1017 | 10 | NE 16.7 | |
| Ieri h: 09:24 | Poco Nuvoloso | 28 | 28 | 100 | 1017 | 10 | NE 22.2 | |
| Ieri h: 08:56 | Molto Nuvoloso | 28 | 28 | 100 | 1017 | 10 | NE 13 | |
| Ieri h: 08:50 | Nuvoloso | 27 | 27 | 100 | 1017 | 10 | N/NE 11.1 | |
| Ieri h: 07:56 | Sereno | 26 | 0 | 18 | 1016 | 10 | N/NE 11.1 | |
| Ieri h: 06:56 | Sereno | 26 | 0 | 18 | 1016 | 10 | N 7.4 | |
| Ieri h: 05:56 | Sereno | 26 | 0 | 18 | 1015 | 10 | N/NE 7.4 | |
| Ieri h: 04:56 | Sereno | 25 | 0 | 19 | 1015 | 10 | N 5.5 | |



